deformed-offering

Current conditions - KSJC (San Jose International)


Coded METAR: 2017/10/21 04:53 KSJC 210453Z 29007KT 10SM FEW020 13/08 A3017 RMK AO2 SLP214 T01330078

Weather Report

Report issued: Sat 21st Oct at 21:53 PDT

Wind: gentle breeze from West-Northwest (290 degrees) at 7 knots (8 mph, 13 kph, Force 3)
Visibility: 10 statute miles
Cloud: a few clouds at 2000 feet
Temperature: 55F / 13C
Dewpoint: 46F / 8C
Humidity: 72%
Pressure: 30.17 inches of mercury

Current conditions - KNUQ (Moffett NAS)


Coded METAR: 2017/10/21 04:56 KNUQ 210456Z 00000KT 10SM CLR 13/07 A3017 RMK AO2 SLP220 T01280072

Weather Report

Report issued: Sat 21st Oct at 21:56 PDT

Wind: calm 0 knots (0 mph, 0 kph, Force 0)
Visibility: 10 statute miles
Cloud: Sky clear
Temperature: 55F / 13C
Dewpoint: 45F / 7C
Humidity: 67%
Pressure: 30.17 inches of mercury

Current conditions - KRHV (Reid-Hillview Airport - San Jose)


Coded METAR: 2017/10/21 04:47 KRHV 210447Z 34007KT 10SM FEW040 13/09 A3020 RMK LAST

Weather Report

Report issued: Sat 21st Oct at 21:47 PDT

Wind: gentle breeze from North-Northwest (340 degrees) at 7 knots (8 mph, 13 kph, Force 3)
Visibility: 10 statute miles
Cloud: a few clouds at 4000 feet
Temperature: 55F / 13C
Dewpoint: 48F / 9C
Humidity: 77%
Pressure: 30.20 inches of mercury

Current conditions - KPAO (Palo Alto Airport)


Coded METAR: 2017/10/21 03:47 KPAO 210347Z 28012KT 10SM FEW040 SCT120 13/08 A3014

Weather Report

Report issued: Sat 21st Oct at 20:47 PDT

Wind: moderate breeze from the West (280 degrees) at 12 knots (14 mph, 22 kph, Force 4)
Visibility: 10 statute miles
Cloud: a few clouds at 4000 feet
Cloud: scattered at 12000 feet
Temperature: 55F / 13C
Dewpoint: 46F / 8C
Humidity: 72%
Pressure: 30.14 inches of mercury

 

deformed-offering